createdAt,value
2019-02-27T00:00:48.682Z,4.32
2019-02-27T00:01:52.854Z,4.35
2019-02-27T00:02:57.088Z,4.38
2019-02-27T00:04:02.389Z,4.41
2019-02-27T00:05:05.932Z,4.43
2019-02-27T00:06:09.656Z,4.43
2019-02-27T00:07:13.841Z,4.44
2019-02-27T00:08:17.932Z,4.44
2019-02-27T00:09:22.096Z,4.45
2019-02-27T00:10:26.341Z,4.46
2019-02-27T00:11:30.640Z,4.46
2019-02-27T00:12:34.800Z,4.47
2019-02-27T00:13:38.914Z,4.49
2019-02-27T00:14:43.072Z,4.52
2019-02-27T00:15:47.323Z,4.53
2019-02-27T00:16:51.505Z,4.55
2019-02-27T00:17:55.830Z,4.58
2019-02-27T00:18:59.999Z,4.62
2019-02-27T00:20:05.215Z,4.67
2019-02-27T00:21:11.012Z,4.72
2019-02-27T00:22:17.261Z,4.75
2019-02-27T00:23:16.842Z,4.76
2019-02-27T00:24:21.065Z,4.78
2019-02-27T00:25:25.262Z,4.78
2019-02-27T00:26:29.468Z,4.78
2019-02-27T00:27:33.676Z,4.78
2019-02-27T00:28:37.891Z,4.76
2019-02-27T00:29:42.078Z,4.75
2019-02-27T00:30:46.269Z,4.73
2019-02-27T00:31:50.492Z,4.72
2019-02-27T00:32:54.707Z,4.71
2019-02-27T00:33:59.943Z,4.70
2019-02-27T00:35:06.501Z,4.70
2019-02-27T00:36:07.256Z,4.70
2019-02-27T00:37:11.278Z,4.69
2019-02-27T00:38:15.603Z,4.67
2019-02-27T00:39:19.809Z,4.65
2019-02-27T00:40:23.919Z,4.62
2019-02-27T00:41:28.169Z,4.60
2019-02-27T00:42:33.770Z,4.58
2019-02-27T00:43:36.521Z,4.57
2019-02-27T00:44:40.628Z,4.55
2019-02-27T00:45:44.771Z,4.53
2019-02-27T00:46:49.026Z,4.51
2019-02-27T00:47:53.803Z,4.50
2019-02-27T00:48:59.301Z,4.49
2019-02-27T00:50:05.660Z,4.49
2019-02-27T00:51:05.704Z,4.50
2019-02-27T00:52:09.968Z,4.50
2019-02-27T00:53:14.175Z,4.49
2019-02-27T00:54:18.338Z,4.48
2019-02-27T00:55:22.567Z,4.48
2019-02-27T00:56:26.762Z,4.48
2019-02-27T00:57:31.060Z,4.48
2019-02-27T00:58:35.234Z,4.47
2019-02-27T00:59:39.568Z,4.45
2019-02-27T01:00:43.711Z,4.44
2019-02-27T01:01:48.023Z,4.42
2019-02-27T01:02:53.459Z,4.41
2019-02-27T01:03:59.281Z,4.41
2019-02-27T01:05:00.486Z,4.41
2019-02-27T01:06:04.703Z,4.40
2019-02-27T01:07:08.807Z,4.39
2019-02-27T01:08:13.071Z,4.38
2019-02-27T01:09:17.306Z,4.38
2019-02-27T01:10:21.465Z,4.39
2019-02-27T01:11:25.678Z,4.41
2019-02-27T01:12:29.697Z,4.43
2019-02-27T01:13:34.021Z,4.44
2019-02-27T01:14:38.255Z,4.44
2019-02-27T01:15:44.724Z,4.44
2019-02-27T01:16:47.680Z,4.44
2019-02-27T01:17:50.774Z,4.46
2019-02-27T01:18:54.888Z,4.48
2019-02-27T01:19:59.133Z,4.50
2019-02-27T01:21:03.237Z,4.51
2019-02-27T01:22:07.464Z,4.51
2019-02-27T01:23:11.655Z,4.51
2019-02-27T01:24:17.461Z,4.49
2019-02-27T01:25:22.889Z,4.47
2019-02-27T01:26:24.228Z,4.43
2019-02-27T01:27:28.438Z,4.40
2019-02-27T01:28:32.714Z,4.37
2019-02-27T01:29:36.888Z,4.35
2019-02-27T01:30:40.966Z,4.33
2019-02-27T01:31:45.054Z,4.32
2019-02-27T01:32:49.318Z,4.30
2019-02-27T01:33:53.339Z,4.29
2019-02-27T01:34:57.573Z,4.29
2019-02-27T01:36:01.716Z,4.29
2019-02-27T01:37:05.858Z,4.28
2019-02-27T01:38:10.057Z,4.27
2019-02-27T01:39:14.330Z,4.25
2019-02-27T01:40:18.684Z,4.24
2019-02-27T01:41:24.669Z,4.23
2019-02-27T01:42:32.019Z,4.23
2019-02-27T01:43:31.007Z,4.22
2019-02-27T01:44:35.037Z,4.22
2019-02-27T01:45:39.343Z,4.22
2019-02-27T01:46:43.446Z,4.23
2019-02-27T01:47:47.682Z,4.24
2019-02-27T01:48:51.724Z,4.25
2019-02-27T01:49:55.921Z,4.26
2019-02-27T01:51:00.167Z,4.26
2019-02-27T01:52:04.246Z,4.26
2019-02-27T01:53:08.526Z,4.25
2019-02-27T01:54:15.069Z,4.24
2019-02-27T01:55:16.914Z,4.23
2019-02-27T01:56:21.143Z,4.22
2019-02-27T01:57:25.211Z,4.20
2019-02-27T01:58:29.496Z,4.16
2019-02-27T01:59:33.650Z,4.13
2019-02-27T02:00:37.686Z,4.09
2019-02-27T02:01:41.914Z,4.06
2019-02-27T02:02:46.325Z,4.04
2019-02-27T02:03:50.244Z,3.98
2019-02-27T02:04:54.453Z,3.93
2019-02-27T02:05:59.298Z,3.90
2019-02-27T02:07:04.062Z,3.88
2019-02-27T02:08:06.971Z,3.86
2019-02-27T02:09:11.200Z,3.84
2019-02-27T02:10:15.277Z,3.84
2019-02-27T02:11:19.541Z,3.85
2019-02-27T02:12:23.636Z,3.86
2019-02-27T02:13:27.806Z,3.87
2019-02-27T02:14:31.954Z,3.90
2019-02-27T02:15:36.112Z,3.94
2019-02-27T02:16:40.283Z,3.97
2019-02-27T02:17:44.445Z,3.99
2019-02-27T02:18:48.829Z,4.01
2019-02-27T02:19:54.272Z,4.02
2019-02-27T02:21:00.777Z,4.02
2019-02-27T02:22:01.327Z,4.01
2019-02-27T02:23:05.508Z,4.00
2019-02-27T02:24:09.793Z,3.99
2019-02-27T02:25:13.874Z,3.97
2019-02-27T02:26:18.144Z,3.95
2019-02-27T02:27:22.226Z,3.92
2019-02-27T02:28:26.398Z,3.88
2019-02-27T02:29:30.735Z,3.84
2019-02-27T02:30:34.850Z,3.79
2019-02-27T02:31:41.673Z,3.75
2019-02-27T02:32:43.134Z,3.70
2019-02-27T02:33:47.368Z,3.67
2019-02-27T02:34:51.437Z,3.63
2019-02-27T02:35:55.565Z,3.60
2019-02-27T02:37:02.546Z,3.56
2019-02-27T02:38:03.997Z,3.54
2019-02-27T02:39:08.194Z,3.49
2019-02-27T02:40:12.272Z,3.43
2019-02-27T02:41:16.405Z,3.35
2019-02-27T02:42:24.328Z,3.28
2019-02-27T02:43:24.711Z,3.22
2019-02-27T02:44:28.954Z,3.16
2019-02-27T02:45:33.768Z,3.11
2019-02-27T02:46:37.337Z,3.08
2019-02-27T02:47:41.346Z,3.08
2019-02-27T02:48:45.466Z,3.08
2019-02-27T02:49:49.624Z,3.07
2019-02-27T02:50:54.982Z,3.08
2019-02-27T02:51:58.020Z,3.09
2019-02-27T02:53:02.200Z,3.08
2019-02-27T02:54:06.277Z,3.08
2019-02-27T02:55:12.742Z,3.07
2019-02-27T02:56:14.676Z,3.08
2019-02-27T02:57:18.909Z,3.08
2019-02-27T02:58:23.096Z,3.05
2019-02-27T02:59:31.099Z,3.03
2019-02-27T03:00:37.706Z,3.01
2019-02-27T03:01:38.356Z,3.00
2019-02-27T03:02:42.521Z,2.98
2019-02-27T03:03:46.586Z,2.97
2019-02-27T03:04:50.855Z,2.96
2019-02-27T03:05:58.911Z,2.94
2019-02-27T03:06:59.173Z,2.92
2019-02-27T03:08:03.324Z,2.89
2019-02-27T03:09:07.458Z,2.88
2019-02-27T03:10:11.691Z,2.88
2019-02-27T03:11:19.055Z,2.89
2019-02-27T03:12:19.820Z,2.91
2019-02-27T03:13:23.904Z,2.93
2019-02-27T03:14:28.186Z,2.96
2019-02-27T03:15:32.301Z,2.97
2019-02-27T03:16:41.075Z,2.99
2019-02-27T03:17:40.803Z,3.03
2019-02-27T03:18:44.956Z,3.07
2019-02-27T03:19:49.227Z,3.11
2019-02-27T03:20:53.412Z,3.17
2019-02-27T03:22:03.234Z,3.19
2019-02-27T03:23:01.625Z,3.21
2019-02-27T03:24:06.003Z,3.21
2019-02-27T03:25:10.129Z,3.18
2019-02-27T03:26:16.770Z,3.13
2019-02-27T03:27:18.499Z,3.08
2019-02-27T03:28:22.716Z,3.03
2019-02-27T03:29:26.902Z,2.98
2019-02-27T03:30:36.344Z,2.94
2019-02-27T03:31:35.230Z,2.91
2019-02-27T03:32:43.181Z,2.88
2019-02-27T03:33:43.488Z,2.88
2019-02-27T03:34:50.770Z,2.88
2019-02-27T03:35:51.711Z,2.86
2019-02-27T03:36:55.971Z,2.84
2019-02-27T03:38:00.169Z,2.82
2019-02-27T03:39:04.177Z,2.82
2019-02-27T03:40:11.774Z,2.80
2019-02-27T03:41:12.471Z,2.77
2019-02-27T03:42:16.683Z,2.74
2019-02-27T03:43:20.883Z,2.70
2019-02-27T03:44:24.939Z,2.68
2019-02-27T03:45:30.981Z,2.66
2019-02-27T03:46:33.218Z,2.64
2019-02-27T03:47:37.397Z,2.64
2019-02-27T03:48:41.589Z,2.64
2019-02-27T03:49:45.748Z,2.64
2019-02-27T03:50:50.911Z,2.66
2019-02-27T03:51:59.689Z,2.67
2019-02-27T03:52:58.200Z,2.69
2019-02-27T03:54:02.318Z,2.70
2019-02-27T03:55:06.545Z,2.73
2019-02-27T03:56:10.710Z,2.73
2019-02-27T03:57:19.008Z,2.71
2019-02-27T03:58:19.092Z,2.71
2019-02-27T03:59:23.255Z,2.72
2019-02-27T04:00:27.495Z,2.71
2019-02-27T04:01:31.698Z,2.67
2019-02-27T04:02:38.864Z,2.62
2019-02-27T04:03:39.840Z,2.57
2019-02-27T04:04:43.923Z,2.53
2019-02-27T04:05:48.186Z,2.49
2019-02-27T04:06:53.048Z,2.49
2019-02-27T04:07:56.660Z,2.49
2019-02-27T04:09:00.762Z,2.50
2019-02-27T04:10:04.980Z,2.52
2019-02-27T04:11:09.162Z,2.53
2019-02-27T04:12:16.014Z,2.55
2019-02-27T04:13:17.533Z,2.56
2019-02-27T04:14:21.614Z,2.58
2019-02-27T04:15:25.874Z,2.60
2019-02-27T04:16:30.495Z,2.61
2019-02-27T04:17:34.239Z,2.63
2019-02-27T04:18:38.473Z,2.64
2019-02-27T04:19:42.545Z,2.65
2019-02-27T04:20:49.681Z,2.66
2019-02-27T04:21:50.909Z,2.67
2019-02-27T04:22:54.993Z,2.68
2019-02-27T04:23:59.290Z,2.69
2019-02-27T04:25:03.352Z,2.73
2019-02-27T04:26:07.585Z,2.79
2019-02-27T04:27:11.905Z,2.85
2019-02-27T04:28:16.049Z,2.91
2019-02-27T04:29:20.141Z,2.96
2019-02-27T04:30:24.405Z,3.03
2019-02-27T04:31:30.597Z,3.09
2019-02-27T04:32:32.779Z,3.14
2019-02-27T04:33:36.912Z,3.20
2019-02-27T04:34:41.000Z,3.24
2019-02-27T04:35:45.254Z,3.29
2019-02-27T04:36:49.328Z,3.32
2019-02-27T04:37:54.377Z,3.35
2019-02-27T04:39:01.868Z,3.38
2019-02-27T04:40:01.857Z,3.40
2019-02-27T04:41:06.051Z,3.42
2019-02-27T04:42:10.176Z,3.44
2019-02-27T04:43:14.426Z,3.46
2019-02-27T04:44:18.557Z,3.49
2019-02-27T04:45:22.775Z,3.51
2019-02-27T04:46:26.852Z,3.52
2019-02-27T04:47:31.114Z,3.55
2019-02-27T04:48:35.214Z,3.56
2019-02-27T04:49:39.459Z,3.57
2019-02-27T04:50:44.155Z,3.59
2019-02-27T04:51:48.127Z,3.61
2019-02-27T04:52:52.015Z,3.62
2019-02-27T04:53:56.187Z,3.63
2019-02-27T04:55:00.331Z,3.63
2019-02-27T04:56:04.555Z,3.64
2019-02-27T04:57:08.781Z,3.65
2019-02-27T04:58:12.856Z,3.66
2019-02-27T04:59:18.610Z,3.67
2019-02-27T05:00:21.206Z,3.68
2019-02-27T05:01:25.431Z,3.68
2019-02-27T05:02:29.604Z,3.67
2019-02-27T05:03:33.789Z,3.68
2019-02-27T05:04:38.039Z,3.69
2019-02-27T05:05:42.117Z,3.70
2019-02-27T05:06:47.386Z,3.71
2019-02-27T05:07:54.117Z,3.72
2019-02-27T05:08:54.644Z,3.72
2019-02-27T05:09:58.915Z,3.71
2019-02-27T05:11:03.014Z,3.71
2019-02-27T05:12:07.331Z,3.70
2019-02-27T05:13:11.497Z,3.70
2019-02-27T05:14:15.714Z,3.70
2019-02-27T05:15:19.808Z,3.71
2019-02-27T05:16:23.945Z,3.71
2019-02-27T05:17:28.215Z,3.71
2019-02-27T05:18:32.285Z,3.71
2019-02-27T05:19:37.206Z,3.71
2019-02-27T05:20:45.054Z,3.71
2019-02-27T05:21:44.815Z,3.71
2019-02-27T05:22:49.024Z,3.71
2019-02-27T05:23:53.104Z,3.71
2019-02-27T05:24:57.293Z,3.71
2019-02-27T05:26:01.480Z,3.71
2019-02-27T05:27:05.732Z,3.71
2019-02-27T05:28:09.922Z,3.71
2019-02-27T05:29:15.798Z,3.71
2019-02-27T05:30:18.282Z,3.71
2019-02-27T05:31:22.388Z,3.70
2019-02-27T05:32:28.266Z,3.70
2019-02-27T05:33:35.712Z,3.69
2019-02-27T05:34:34.936Z,3.68
2019-02-27T05:35:39.216Z,3.68
2019-02-27T05:36:43.301Z,3.67
2019-02-27T05:37:47.453Z,3.67
2019-02-27T05:38:51.720Z,3.67
2019-02-27T05:39:55.866Z,3.66
2019-02-27T05:41:01.016Z,3.66
2019-02-27T05:42:06.451Z,3.66
2019-02-27T05:43:13.186Z,3.66
2019-02-27T05:44:13.613Z,3.66
2019-02-27T05:45:17.872Z,3.63
2019-02-27T05:46:22.026Z,3.57
2019-02-27T05:47:26.076Z,3.51
2019-02-27T05:48:30.282Z,3.47
2019-02-27T05:49:34.486Z,3.44
2019-02-27T05:50:38.694Z,3.44
2019-02-27T05:51:42.732Z,3.44
2019-02-27T05:52:48.904Z,3.44
2019-02-27T05:53:51.110Z,3.44
2019-02-27T05:54:55.367Z,3.46
2019-02-27T05:55:59.587Z,3.47
2019-02-27T05:57:03.796Z,3.48
2019-02-27T05:58:07.998Z,3.47
2019-02-27T05:59:13.070Z,3.48
2019-02-27T06:00:16.874Z,3.49
2019-02-27T06:01:21.085Z,3.51
2019-02-27T06:02:25.595Z,3.52
2019-02-27T06:03:29.570Z,3.52
2019-02-27T06:04:34.547Z,3.53
2019-02-27T06:05:37.923Z,3.53
2019-02-27T06:06:45.851Z,3.54
2019-02-27T06:07:48.385Z,3.55
2019-02-27T06:08:52.415Z,3.55
2019-02-27T06:09:56.631Z,3.54
2019-02-27T06:11:00.947Z,3.51
2019-02-27T06:12:06.975Z,3.45
2019-02-27T06:13:09.442Z,3.38
2019-02-27T06:14:13.467Z,3.30
2019-02-27T06:15:17.634Z,3.23
2019-02-27T06:16:21.848Z,3.18
2019-02-27T06:17:26.195Z,3.15
2019-02-27T06:18:30.179Z,3.13
2019-02-27T06:19:34.430Z,3.13
2019-02-27T06:20:38.968Z,3.14
2019-02-27T06:21:42.705Z,3.17
2019-02-27T06:22:46.868Z,3.20
2019-02-27T06:23:50.989Z,3.23
2019-02-27T06:24:55.224Z,3.28
2019-02-27T06:26:00.250Z,3.31
2019-02-27T06:27:06.094Z,3.30
2019-02-27T06:28:07.752Z,3.22
2019-02-27T06:29:11.888Z,3.14
2019-02-27T06:30:16.171Z,3.08
2019-02-27T06:31:20.410Z,3.04
2019-02-27T06:32:24.519Z,3.00
2019-02-27T06:33:28.803Z,2.97
2019-02-27T06:34:32.992Z,2.95
2019-02-27T06:35:37.081Z,2.93
2019-02-27T06:36:42.833Z,2.92
2019-02-27T06:37:45.413Z,2.88
2019-02-27T06:38:49.660Z,2.83
2019-02-27T06:39:54.226Z,2.77
2019-02-27T06:40:59.383Z,2.74
2019-02-27T06:42:02.151Z,2.71
2019-02-27T06:43:06.270Z,2.70
2019-02-27T06:44:10.521Z,2.70
2019-02-27T06:45:14.689Z,2.70
2019-02-27T06:46:20.023Z,2.71
2019-02-27T06:47:22.906Z,2.72
2019-02-27T06:48:27.179Z,2.75
2019-02-27T06:49:31.415Z,2.78
2019-02-27T06:50:35.564Z,2.81
2019-02-27T06:51:39.821Z,2.85
2019-02-27T06:52:43.903Z,2.89
2019-02-27T06:53:48.154Z,2.95
2019-02-27T06:54:52.903Z,3.02
2019-02-27T06:55:56.561Z,3.07
2019-02-27T06:57:00.714Z,3.12
2019-02-27T06:58:04.831Z,3.17
2019-02-27T06:59:09.092Z,3.20
2019-02-27T07:00:13.291Z,3.20
2019-02-27T07:01:17.361Z,3.21
2019-02-27T07:02:22.276Z,3.25
2019-02-27T07:03:29.187Z,3.31
2019-02-27T07:04:29.926Z,3.37
2019-02-27T07:05:34.202Z,3.44
2019-02-27T07:06:38.303Z,3.49
2019-02-27T07:07:42.558Z,3.55
2019-02-27T07:08:46.608Z,3.62
2019-02-27T07:09:50.737Z,3.68
2019-02-27T07:10:57.325Z,3.74
2019-02-27T07:11:59.276Z,3.79
2019-02-27T07:13:03.349Z,3.84
2019-02-27T07:14:07.629Z,3.89
2019-02-27T07:15:12.821Z,3.93
2019-02-27T07:16:16.014Z,3.96
2019-02-27T07:17:20.137Z,3.99
2019-02-27T07:18:24.315Z,4.02
2019-02-27T07:19:28.562Z,4.04
2019-02-27T07:20:32.656Z,4.05
2019-02-27T07:21:36.937Z,4.08
2019-02-27T07:22:45.609Z,4.11
2019-02-27T07:23:45.280Z,4.14
2019-02-27T07:24:49.388Z,4.17
2019-02-27T07:25:53.651Z,4.20
2019-02-27T07:26:57.785Z,4.22
2019-02-27T07:28:03.524Z,4.24
2019-02-27T07:29:06.144Z,4.26
2019-02-27T07:30:10.402Z,4.29
2019-02-27T07:31:17.290Z,4.31
2019-02-27T07:32:18.839Z,4.33
2019-02-27T07:33:23.099Z,4.36
2019-02-27T07:34:27.274Z,4.38
2019-02-27T07:35:31.516Z,4.40
2019-02-27T07:36:35.948Z,4.42
2019-02-27T07:37:39.815Z,4.45
2019-02-27T07:38:44.175Z,4.46
2019-02-27T07:39:48.381Z,4.47
2019-02-27T07:40:53.412Z,4.49
2019-02-27T07:41:57.171Z,4.49
2019-02-27T07:43:03.351Z,4.48
2019-02-27T07:44:05.625Z,4.48
2019-02-27T07:45:10.735Z,4.47
2019-02-27T07:46:13.927Z,4.46
2019-02-27T07:47:18.097Z,4.46
2019-02-27T07:48:22.354Z,4.46
2019-02-27T07:49:28.335Z,4.47
2019-02-27T07:50:32.505Z,4.50
2019-02-27T07:51:34.841Z,4.51
2019-02-27T07:52:38.943Z,4.55
2019-02-27T07:53:43.101Z,4.59
2019-02-27T07:54:47.370Z,4.64
2019-02-27T07:55:51.694Z,4.69
2019-02-27T07:56:55.789Z,4.73
2019-02-27T07:57:59.851Z,4.76
2019-02-27T07:59:04.218Z,4.80
2019-02-27T08:00:08.297Z,4.84
2019-02-27T08:01:12.449Z,4.88
2019-02-27T08:02:16.739Z,4.92
2019-02-27T08:03:20.973Z,4.93
2019-02-27T08:04:25.094Z,4.95
2019-02-27T08:05:29.357Z,4.97
2019-02-27T08:06:35.041Z,4.99
2019-02-27T08:07:37.856Z,5.02
2019-02-27T08:08:42.007Z,5.04
2019-02-27T08:09:46.119Z,5.06
2019-02-27T08:10:50.422Z,5.08
2019-02-27T08:11:54.658Z,5.09
2019-02-27T08:12:58.882Z,5.10
2019-02-27T08:14:03.245Z,5.11
2019-02-27T08:15:07.207Z,5.13
2019-02-27T08:16:11.505Z,5.15
2019-02-27T08:17:17.831Z,5.18
2019-02-27T08:18:29.584Z,5.21
2019-02-27T08:19:24.326Z,5.25
2019-02-27T08:20:28.481Z,5.28
2019-02-27T08:21:32.695Z,5.31
2019-02-27T08:22:36.916Z,5.35
2019-02-27T08:23:41.136Z,5.38
2019-02-27T08:24:45.437Z,5.41
2019-02-27T08:25:49.715Z,5.44
2019-02-27T08:26:53.918Z,5.47
2019-02-27T08:27:58.109Z,5.51
2019-02-27T08:29:02.380Z,5.55
2019-02-27T08:30:06.477Z,5.58
2019-02-27T08:31:10.730Z,5.60
2019-02-27T08:32:14.783Z,5.62
2019-02-27T08:33:19.197Z,5.64
2019-02-27T08:34:23.372Z,5.66
2019-02-27T08:35:27.573Z,5.69
2019-02-27T08:36:31.709Z,5.71
2019-02-27T08:37:36.074Z,5.74
2019-02-27T08:38:40.373Z,5.76
2019-02-27T08:39:44.524Z,5.79
2019-02-27T08:40:48.771Z,5.82
2019-02-27T08:41:52.987Z,5.85
2019-02-27T08:42:57.379Z,5.87
2019-02-27T08:44:01.624Z,5.90
2019-02-27T08:45:05.819Z,5.93
2019-02-27T08:46:10.052Z,5.96
2019-02-27T08:47:14.295Z,5.98
2019-02-27T08:48:18.475Z,6.01
2019-02-27T08:49:24.961Z,6.04
2019-02-27T08:50:29.302Z,6.06
2019-02-27T08:51:31.328Z,6.10
2019-02-27T08:52:35.509Z,6.13
2019-02-27T08:53:39.755Z,6.16
2019-02-27T08:54:43.968Z,6.19
2019-02-27T08:55:48.234Z,6.23
2019-02-27T08:56:52.419Z,6.25
2019-02-27T08:57:57.179Z,6.29
2019-02-27T08:59:04.989Z,6.31
2019-02-27T09:00:05.149Z,6.34
2019-02-27T09:01:09.361Z,6.37
2019-02-27T09:02:13.578Z,6.41
2019-02-27T09:03:20.632Z,6.44
2019-02-27T09:04:22.066Z,6.48
2019-02-27T09:05:26.243Z,6.51
2019-02-27T09:06:30.349Z,6.54
2019-02-27T09:07:36.463Z,6.58
2019-02-27T09:08:43.164Z,6.62
2019-02-27T09:09:43.108Z,6.65
2019-02-27T09:10:47.308Z,6.68
2019-02-27T09:11:51.478Z,6.72
2019-02-27T09:13:04.826Z,6.75
2019-02-27T09:14:00.126Z,6.79
2019-02-27T09:15:04.248Z,6.83
2019-02-27T09:16:08.475Z,6.87
2019-02-27T09:17:12.738Z,6.91
2019-02-27T09:18:16.886Z,6.95
2019-02-27T09:19:21.216Z,6.99
2019-02-27T09:20:25.439Z,7.03
2019-02-27T09:21:29.672Z,7.07
2019-02-27T09:22:36.702Z,7.12
2019-02-27T09:23:38.053Z,7.17
2019-02-27T09:24:42.245Z,7.21
2019-02-27T09:25:46.548Z,7.25
2019-02-27T09:26:50.730Z,7.30
2019-02-27T09:27:55.024Z,7.35
2019-02-27T09:28:59.190Z,7.39
2019-02-27T09:30:03.517Z,7.45
2019-02-27T09:31:07.818Z,7.51
2019-02-27T09:32:12.365Z,7.55
2019-02-27T09:33:17.000Z,7.59
2019-02-27T09:34:20.641Z,7.64
2019-02-27T09:35:24.830Z,7.67
2019-02-27T09:36:29.150Z,7.73
2019-02-27T09:37:33.413Z,7.77
2019-02-27T09:38:37.689Z,7.81
2019-02-27T09:39:41.877Z,7.85
2019-02-27T09:40:46.116Z,7.89
2019-02-27T09:41:51.276Z,7.92
2019-02-27T09:42:54.707Z,7.96
2019-02-27T09:44:01.346Z,8.01
2019-02-27T09:45:03.222Z,8.05
2019-02-27T09:46:07.533Z,8.10
2019-02-27T09:47:11.769Z,8.15
2019-02-27T09:48:16.051Z,8.18
2019-02-27T09:49:20.289Z,8.23
2019-02-27T09:50:24.556Z,8.27
2019-02-27T09:51:28.816Z,8.32
2019-02-27T09:52:33.008Z,8.37
2019-02-27T09:53:37.499Z,8.41
2019-02-27T09:54:41.518Z,8.45
2019-02-27T09:55:45.818Z,8.48
2019-02-27T09:56:50.063Z,8.52
2019-02-27T09:57:54.249Z,8.56
2019-02-27T09:58:58.525Z,8.60
2019-02-27T10:00:02.997Z,8.64
2019-02-27T10:01:07.044Z,8.68
2019-02-27T10:02:12.480Z,8.73
2019-02-27T10:03:19.791Z,8.76
2019-02-27T10:04:19.827Z,8.79
2019-02-27T10:05:24.064Z,8.82
2019-02-27T10:06:28.351Z,8.86
2019-02-27T10:07:32.646Z,8.91
2019-02-27T10:08:36.933Z,8.96
2019-02-27T10:09:41.049Z,9.00
2019-02-27T10:10:46.085Z,9.03
2019-02-27T10:11:52.246Z,9.07
2019-02-27T10:12:53.885Z,9.11
2019-02-27T10:13:58.345Z,9.16
2019-02-27T10:15:02.592Z,9.21
2019-02-27T10:16:06.850Z,9.26
2019-02-27T10:17:11.095Z,9.31
2019-02-27T10:18:18.331Z,9.34
2019-02-27T10:19:19.632Z,9.38
2019-02-27T10:20:23.913Z,9.43
2019-02-27T10:21:28.186Z,9.46
2019-02-27T10:22:32.448Z,9.50
2019-02-27T10:23:36.706Z,9.54
2019-02-27T10:24:41.007Z,9.59
2019-02-27T10:25:45.336Z,9.63
2019-02-27T10:26:49.576Z,9.66
2019-02-27T10:27:53.845Z,9.70
2019-02-27T10:28:58.104Z,9.73
2019-02-27T10:30:11.119Z,9.76
2019-02-27T10:31:06.786Z,9.80
2019-02-27T10:32:11.012Z,9.83
2019-02-27T10:33:15.267Z,9.87
2019-02-27T10:34:19.610Z,9.92
2019-02-27T10:35:23.901Z,9.97
2019-02-27T10:36:28.285Z,10.02
2019-02-27T10:37:32.689Z,10.08
2019-02-27T10:38:40.233Z,10.11
2019-02-27T10:39:41.256Z,10.15
2019-02-27T10:40:46.202Z,10.19
2019-02-27T10:41:50.643Z,10.22
2019-02-27T10:42:54.133Z,10.26
2019-02-27T10:43:58.441Z,10.29
2019-02-27T10:45:02.719Z,10.34
2019-02-27T10:46:07.050Z,10.37
2019-02-27T10:47:11.293Z,10.42
2019-02-27T10:48:15.608Z,10.46
2019-02-27T10:49:21.782Z,10.50
2019-02-27T10:50:24.111Z,10.54
2019-02-27T10:51:30.410Z,10.59
2019-02-27T10:52:32.740Z,10.63
2019-02-27T10:53:37.051Z,10.67
2019-02-27T10:54:41.281Z,10.71
2019-02-27T10:55:46.439Z,10.74
2019-02-27T10:56:49.909Z,10.78
2019-02-27T10:57:54.194Z,10.84
2019-02-27T10:58:58.478Z,10.91
2019-02-27T11:00:02.890Z,10.97
2019-02-27T11:01:07.251Z,11.03
2019-02-27T11:02:12.407Z,11.08
2019-02-27T11:03:15.912Z,11.14
2019-02-27T11:04:20.102Z,11.20
2019-02-27T11:05:24.427Z,11.28
2019-02-27T11:06:34.044Z,11.34
2019-02-27T11:07:33.168Z,11.40
2019-02-27T11:08:37.455Z,11.46
2019-02-27T11:09:42.057Z,11.53
2019-02-27T11:10:46.011Z,11.59
2019-02-27T11:11:53.731Z,11.65
2019-02-27T11:12:54.609Z,11.70
2019-02-27T11:13:58.903Z,11.74
2019-02-27T11:15:03.331Z,11.79
2019-02-27T11:16:07.609Z,11.84
2019-02-27T11:17:11.746Z,11.90
2019-02-27T11:18:16.148Z,11.94
2019-02-27T11:19:20.575Z,11.99
2019-02-27T11:20:24.906Z,12.06
2019-02-27T11:21:29.163Z,12.13
2019-02-27T11:22:33.459Z,12.22
2019-02-27T11:23:40.910Z,12.31
2019-02-27T11:24:41.955Z,12.39
2019-02-27T11:25:46.170Z,12.47
2019-02-27T11:26:50.579Z,12.55
2019-02-27T11:27:54.910Z,12.63
2019-02-27T11:28:59.226Z,12.73
2019-02-27T11:30:03.385Z,12.82
2019-02-27T11:31:08.455Z,12.91
2019-02-27T11:32:12.162Z,13.01
2019-02-27T11:33:25.198Z,13.10
2019-02-27T11:34:20.772Z,13.17
2019-02-27T11:35:26.038Z,13.26
2019-02-27T11:36:29.431Z,13.36
2019-02-27T11:37:33.852Z,13.45
2019-02-27T11:38:38.088Z,13.55
2019-02-27T11:39:42.420Z,13.65
2019-02-27T11:40:46.749Z,13.73
2019-02-27T11:41:51.094Z,13.83
2019-02-27T11:42:55.453Z,13.96
2019-02-27T11:43:59.752Z,14.06
2019-02-27T11:45:04.198Z,14.18
2019-02-27T11:46:08.504Z,14.29
2019-02-27T11:47:12.850Z,14.42
2019-02-27T11:48:17.148Z,14.49
2019-02-27T11:49:21.600Z,14.57
2019-02-27T11:50:25.944Z,14.67
2019-02-27T11:51:30.408Z,14.79
2019-02-27T11:52:34.708Z,14.91
2019-02-27T11:53:39.058Z,14.96
2019-02-27T11:54:43.942Z,15.03
2019-02-27T11:55:48.133Z,15.06
2019-02-27T11:56:56.294Z,15.10
2019-02-27T11:57:56.557Z,15.11
2019-02-27T11:59:00.969Z,15.13
2019-02-27T12:00:05.270Z,15.20
2019-02-27T12:01:09.614Z,15.29
2019-02-27T12:02:13.939Z,15.42
2019-02-27T12:03:18.305Z,15.54
2019-02-27T12:04:22.662Z,15.66
2019-02-27T12:05:30.260Z,15.73
2019-02-27T12:06:31.359Z,15.82
2019-02-27T12:07:35.737Z,15.87
2019-02-27T12:08:40.055Z,15.91
2019-02-27T12:09:44.407Z,15.95
2019-02-27T12:10:48.762Z,16.00
2019-02-27T12:11:53.113Z,16.08
2019-02-27T12:13:00.950Z,16.18
2019-02-27T12:14:01.718Z,16.28
2019-02-27T12:15:06.752Z,16.27
2019-02-27T12:16:10.734Z,16.31
2019-02-27T12:17:14.889Z,16.37
2019-02-27T12:18:19.262Z,16.43
2019-02-27T12:19:23.625Z,16.50
2019-02-27T12:20:27.983Z,16.56
2019-02-27T12:21:32.329Z,16.64
2019-02-27T12:22:36.616Z,16.75
2019-02-27T12:23:41.203Z,16.84
2019-02-27T12:24:45.410Z,16.86
2019-02-27T12:25:49.790Z,16.93
2019-02-27T12:26:57.186Z,17.02
2019-02-27T12:28:00.691Z,17.12
2019-02-27T12:29:05.047Z,17.16
2019-02-27T12:30:09.398Z,17.26
2019-02-27T12:31:14.445Z,17.37
2019-02-27T12:32:19.372Z,17.42
2019-02-27T12:33:22.526Z,17.49
2019-02-27T12:34:26.886Z,17.47
2019-02-27T12:35:31.290Z,17.53
2019-02-27T12:36:35.672Z,17.62
2019-02-27T12:37:40.080Z,17.69
2019-02-27T12:38:44.512Z,17.75
2019-02-27T12:39:49.625Z,17.79
2019-02-27T12:40:53.350Z,17.72
2019-02-27T12:41:57.808Z,17.60
2019-02-27T12:43:02.158Z,17.60
2019-02-27T12:44:06.515Z,17.61
2019-02-27T12:45:10.883Z,17.59
2019-02-27T12:46:15.228Z,17.62
2019-02-27T12:47:19.636Z,17.68
2019-02-27T12:48:24.102Z,17.78
2019-02-27T12:49:28.445Z,17.81
2019-02-27T12:50:32.816Z,17.91
2019-02-27T12:51:38.300Z,18.03
2019-02-27T12:52:44.356Z,18.14
2019-02-27T12:53:45.997Z,18.12
2019-02-27T12:54:50.379Z,18.18
2019-02-27T12:55:54.802Z,18.27
2019-02-27T12:56:59.176Z,18.38
2019-02-27T12:58:03.594Z,18.49
2019-02-27T12:59:08.019Z,18.61
2019-02-27T13:00:12.402Z,18.69
2019-02-27T13:01:17.011Z,18.75
2019-02-27T13:02:25.970Z,18.81
2019-02-27T13:03:25.638Z,18.78
2019-02-27T13:04:30.035Z,18.60
2019-02-27T13:05:34.446Z,18.53
2019-02-27T13:06:38.843Z,18.34
2019-02-27T13:07:44.692Z,18.30
2019-02-27T13:08:47.616Z,18.21
2019-02-27T13:09:52.007Z,18.24
2019-02-27T13:10:56.405Z,18.33
2019-02-27T13:12:00.767Z,18.34
2019-02-27T13:13:05.219Z,18.35
2019-02-27T13:14:09.547Z,18.37
2019-02-27T13:15:13.915Z,18.39
2019-02-27T13:16:18.303Z,18.44
2019-02-27T13:17:22.667Z,18.51
2019-02-27T13:18:31.639Z,18.54
2019-02-27T13:19:31.466Z,18.51
2019-02-27T13:20:35.867Z,18.39
2019-02-27T13:21:40.285Z,18.40
2019-02-27T13:22:44.636Z,18.47
2019-02-27T13:23:49.037Z,18.50
2019-02-27T13:24:53.388Z,18.58
2019-02-27T13:26:00.536Z,18.54
2019-02-27T13:27:02.156Z,18.57
2019-02-27T13:28:06.541Z,18.64
2019-02-27T13:29:10.861Z,18.74
2019-02-27T13:30:15.207Z,18.80
2019-02-27T13:31:19.574Z,18.70
2019-02-27T13:32:26.417Z,18.65
2019-02-27T13:33:28.391Z,18.67
2019-02-27T13:34:32.732Z,18.72
2019-02-27T13:35:37.109Z,18.79
2019-02-27T13:36:41.609Z,18.81
2019-02-27T13:37:45.967Z,18.87
2019-02-27T13:38:52.258Z,18.90
2019-02-27T13:39:57.316Z,18.93
2019-02-27T13:40:59.209Z,18.90
2019-02-27T13:42:03.474Z,18.83
2019-02-27T13:43:07.931Z,18.83
2019-02-27T13:44:12.296Z,18.86
2019-02-27T13:45:16.678Z,18.90
2019-02-27T13:46:22.741Z,18.92
2019-02-27T13:47:25.434Z,18.92
2019-02-27T13:48:29.850Z,18.90
2019-02-27T13:49:34.232Z,18.87
2019-02-27T13:50:38.600Z,18.80
2019-02-27T13:51:43.009Z,18.73
2019-02-27T13:52:49.878Z,18.71
2019-02-27T13:53:51.834Z,18.71
2019-02-27T13:54:56.205Z,18.73
2019-02-27T13:56:00.603Z,18.77
2019-02-27T13:57:04.985Z,18.80
2019-02-27T13:58:09.366Z,18.76
2019-02-27T13:59:13.788Z,18.76
2019-02-27T14:00:20.827Z,18.73
2019-02-27T14:01:25.190Z,18.71
2019-02-27T14:02:26.953Z,18.65
2019-02-27T14:03:31.353Z,18.60
2019-02-27T14:04:35.738Z,18.50
2019-02-27T14:05:40.136Z,18.40
2019-02-27T14:06:47.403Z,18.32
2019-02-27T14:07:48.898Z,18.26